sensor_id;sensor_type;location;lat;lon;timestamp;P1;durP1;ratioP1;P2;durP2;ratioP2
11907;SDS011;6014;47.690;9.130;2023-05-23T00:02:09;10.00;;;6.50;;
11907;SDS011;6014;47.690;9.130;2023-05-23T00:04:39;9.52;;;6.03;;
11907;SDS011;6014;47.690;9.130;2023-05-23T00:07:08;10.82;;;6.18;;
11907;SDS011;6014;47.690;9.130;2023-05-23T00:09:38;9.23;;;5.88;;
11907;SDS011;6014;47.690;9.130;2023-05-23T00:12:06;9.05;;;5.68;;
11907;SDS011;6014;47.690;9.130;2023-05-23T00:14:35;8.27;;;5.57;;
11907;SDS011;6014;47.690;9.130;2023-05-23T00:17:05;11.15;;;5.32;;
11907;SDS011;6014;47.690;9.130;2023-05-23T00:19:36;9.23;;;5.93;;
11907;SDS011;6014;47.690;9.130;2023-05-23T00:22:05;10.70;;;6.43;;
11907;SDS011;6014;47.690;9.130;2023-05-23T00:24:33;9.82;;;6.25;;
11907;SDS011;6014;47.690;9.130;2023-05-23T00:27:03;10.77;;;6.28;;
11907;SDS011;6014;47.690;9.130;2023-05-23T00:29:31;9.75;;;6.18;;
11907;SDS011;6014;47.690;9.130;2023-05-23T00:32:00;11.02;;;6.22;;
11907;SDS011;6014;47.690;9.130;2023-05-23T00:34:28;10.02;;;6.57;;
11907;SDS011;6014;47.690;9.130;2023-05-23T00:36:56;11.30;;;6.35;;
11907;SDS011;6014;47.690;9.130;2023-05-23T00:39:25;11.35;;;6.65;;
11907;SDS011;6014;47.690;9.130;2023-05-23T00:41:56;9.25;;;6.25;;
11907;SDS011;6014;47.690;9.130;2023-05-23T00:44:26;12.05;;;6.82;;
11907;SDS011;6014;47.690;9.130;2023-05-23T00:46:55;12.60;;;7.53;;
11907;SDS011;6014;47.690;9.130;2023-05-23T00:49:24;11.18;;;6.45;;
11907;SDS011;6014;47.690;9.130;2023-05-23T00:51:53;12.35;;;6.22;;
11907;SDS011;6014;47.690;9.130;2023-05-23T00:54:22;10.32;;;6.80;;
11907;SDS011;6014;47.690;9.130;2023-05-23T00:56:56;9.60;;;5.88;;
11907;SDS011;6014;47.690;9.130;2023-05-23T00:59:26;10.70;;;6.63;;
11907;SDS011;6014;47.690;9.130;2023-05-23T01:01:55;11.25;;;6.70;;
11907;SDS011;6014;47.690;9.130;2023-05-23T01:04:25;10.35;;;6.38;;
11907;SDS011;6014;47.690;9.130;2023-05-23T01:06:54;9.90;;;6.10;;
11907;SDS011;6014;47.690;9.130;2023-05-23T01:09:24;10.02;;;6.35;;
11907;SDS011;6014;47.690;9.130;2023-05-23T01:12:01;11.25;;;6.07;;
11907;SDS011;6014;47.690;9.130;2023-05-23T01:14:44;11.65;;;6.72;;
11907;SDS011;6014;47.690;9.130;2023-05-23T01:17:17;13.45;;;6.47;;
11907;SDS011;6014;47.690;9.130;2023-05-23T01:19:55;11.73;;;6.45;;
11907;SDS011;6014;47.690;9.130;2023-05-23T01:22:32;10.00;;;5.90;;
11907;SDS011;6014;47.690;9.130;2023-05-23T01:25:10;8.68;;;6.15;;
11907;SDS011;6014;47.690;9.130;2023-05-23T01:27:56;10.27;;;6.53;;
11907;SDS011;6014;47.690;9.130;2023-05-23T01:30:28;9.73;;;6.57;;
11907;SDS011;6014;47.690;9.130;2023-05-23T01:32:59;11.63;;;6.95;;
11907;SDS011;6014;47.690;9.130;2023-05-23T01:35:28;14.77;;;7.47;;
11907;SDS011;6014;47.690;9.130;2023-05-23T01:37:58;13.02;;;7.57;;
11907;SDS011;6014;47.690;9.130;2023-05-23T01:40:27;10.05;;;6.70;;
11907;SDS011;6014;47.690;9.130;2023-05-23T01:42:59;10.40;;;6.47;;
11907;SDS011;6014;47.690;9.130;2023-05-23T01:45:28;12.68;;;6.90;;
11907;SDS011;6014;47.690;9.130;2023-05-23T01:47:57;10.75;;;6.47;;
11907;SDS011;6014;47.690;9.130;2023-05-23T01:50:26;10.63;;;6.57;;
11907;SDS011;6014;47.690;9.130;2023-05-23T01:52:55;13.15;;;6.85;;
11907;SDS011;6014;47.690;9.130;2023-05-23T01:55:24;10.45;;;6.65;;
11907;SDS011;6014;47.690;9.130;2023-05-23T01:57:54;8.98;;;5.80;;
11907;SDS011;6014;47.690;9.130;2023-05-23T02:00:24;10.63;;;6.38;;
11907;SDS011;6014;47.690;9.130;2023-05-23T02:02:52;11.52;;;6.70;;
11907;SDS011;6014;47.690;9.130;2023-05-23T02:05:20;13.35;;;6.70;;
11907;SDS011;6014;47.690;9.130;2023-05-23T02:07:58;11.60;;;6.90;;
11907;SDS011;6014;47.690;9.130;2023-05-23T02:10:29;12.27;;;7.40;;
11907;SDS011;6014;47.690;9.130;2023-05-23T02:12:58;11.93;;;7.05;;
11907;SDS011;6014;47.690;9.130;2023-05-23T02:15:29;10.80;;;6.93;;
11907;SDS011;6014;47.690;9.130;2023-05-23T02:17:57;10.95;;;7.25;;
11907;SDS011;6014;47.690;9.130;2023-05-23T02:20:27;10.45;;;6.88;;
11907;SDS011;6014;47.690;9.130;2023-05-23T02:22:55;11.27;;;6.75;;
11907;SDS011;6014;47.690;9.130;2023-05-23T02:25:24;10.80;;;6.43;;
11907;SDS011;6014;47.690;9.130;2023-05-23T02:27:52;9.20;;;6.13;;
11907;SDS011;6014;47.690;9.130;2023-05-23T02:30:30;12.65;;;7.03;;
11907;SDS011;6014;47.690;9.130;2023-05-23T02:32:58;11.23;;;6.90;;
11907;SDS011;6014;47.690;9.130;2023-05-23T02:35:31;11.82;;;7.38;;
11907;SDS011;6014;47.690;9.130;2023-05-23T02:38:00;11.18;;;6.68;;
11907;SDS011;6014;47.690;9.130;2023-05-23T02:44:01;11.68;;;7.45;;
11907;SDS011;6014;47.690;9.130;2023-05-23T02:46:58;10.32;;;6.97;;
11907;SDS011;6014;47.690;9.130;2023-05-23T02:49:28;11.43;;;7.00;;
11907;SDS011;6014;47.690;9.130;2023-05-23T02:52:18;9.93;;;6.77;;
11907;SDS011;6014;47.690;9.130;2023-05-23T02:55:29;11.48;;;7.20;;
11907;SDS011;6014;47.690;9.130;2023-05-23T02:58:15;12.83;;;8.23;;
11907;SDS011;6014;47.690;9.130;2023-05-23T03:04:36;9.85;;;6.57;;
11907;SDS011;6014;47.690;9.130;2023-05-23T03:11:04;11.70;;;6.43;;
11907;SDS011;6014;47.690;9.130;2023-05-23T03:14:12;14.17;;;7.00;;
11907;SDS011;6014;47.690;9.130;2023-05-23T03:17:08;12.33;;;7.67;;
11907;SDS011;6014;47.690;9.130;2023-05-23T03:20:46;10.50;;;6.87;;
11907;SDS011;6014;47.690;9.130;2023-05-23T03:23:51;10.70;;;6.73;;
11907;SDS011;6014;47.690;9.130;2023-05-23T03:34:18;12.13;;;7.20;;
11907;SDS011;6014;47.690;9.130;2023-05-23T03:44:06;12.70;;;7.20;;
11907;SDS011;6014;47.690;9.130;2023-05-23T03:47:06;13.77;;;6.80;;
11907;SDS011;6014;47.690;9.130;2023-05-23T03:53:19;12.53;;;7.57;;
11907;SDS011;6014;47.690;9.130;2023-05-23T03:56:27;13.47;;;7.97;;
11907;SDS011;6014;47.690;9.130;2023-05-23T03:59:30;11.30;;;7.37;;
11907;SDS011;6014;47.690;9.130;2023-05-23T04:02:15;11.20;;;7.53;;
11907;SDS011;6014;47.690;9.130;2023-05-23T04:04:56;13.13;;;8.05;;
11907;SDS011;6014;47.690;9.130;2023-05-23T04:08:07;12.73;;;7.43;;
11907;SDS011;6014;47.690;9.130;2023-05-23T04:11:40;12.05;;;7.88;;
11907;SDS011;6014;47.690;9.130;2023-05-23T04:14:49;14.70;;;7.97;;
11907;SDS011;6014;47.690;9.130;2023-05-23T04:17:24;11.73;;;7.32;;
11907;SDS011;6014;47.690;9.130;2023-05-23T04:20:07;11.73;;;8.15;;
11907;SDS011;6014;47.690;9.130;2023-05-23T04:22:43;12.10;;;8.02;;
11907;SDS011;6014;47.690;9.130;2023-05-23T04:25:16;12.23;;;7.63;;
11907;SDS011;6014;47.690;9.130;2023-05-23T04:27:59;13.27;;;7.88;;
11907;SDS011;6014;47.690;9.130;2023-05-23T04:30:31;10.88;;;7.45;;
11907;SDS011;6014;47.690;9.130;2023-05-23T04:33:00;11.07;;;7.60;;
11907;SDS011;6014;47.690;9.130;2023-05-23T04:35:29;11.65;;;8.32;;
11907;SDS011;6014;47.690;9.130;2023-05-23T04:37:59;11.27;;;7.53;;
11907;SDS011;6014;47.690;9.130;2023-05-23T04:40:29;14.27;;;8.13;;
11907;SDS011;6014;47.690;9.130;2023-05-23T04:42:59;12.93;;;7.18;;
11907;SDS011;6014;47.690;9.130;2023-05-23T04:45:27;10.85;;;7.15;;
11907;SDS011;6014;47.690;9.130;2023-05-23T04:47:56;12.30;;;8.48;;
11907;SDS011;6014;47.690;9.130;2023-05-23T04:50:25;11.57;;;8.05;;
11907;SDS011;6014;47.690;9.130;2023-05-23T04:52:57;11.25;;;7.38;;
11907;SDS011;6014;47.690;9.130;2023-05-23T04:55:25;10.68;;;7.03;;
11907;SDS011;6014;47.690;9.130;2023-05-23T04:57:53;11.70;;;7.90;;
11907;SDS011;6014;47.690;9.130;2023-05-23T05:00:23;12.07;;;8.20;;
11907;SDS011;6014;47.690;9.130;2023-05-23T05:02:52;13.35;;;7.90;;
11907;SDS011;6014;47.690;9.130;2023-05-23T05:05:21;14.18;;;7.53;;
11907;SDS011;6014;47.690;9.130;2023-05-23T05:07:49;10.90;;;7.72;;
11907;SDS011;6014;47.690;9.130;2023-05-23T05:10:18;11.45;;;7.72;;
11907;SDS011;6014;47.690;9.130;2023-05-23T05:12:47;12.73;;;7.63;;
11907;SDS011;6014;47.690;9.130;2023-05-23T05:15:21;12.05;;;8.60;;
11907;SDS011;6014;47.690;9.130;2023-05-23T05:18:03;12.25;;;7.40;;
11907;SDS011;6014;47.690;9.130;2023-05-23T05:23:11;13.10;;;7.38;;
11907;SDS011;6014;47.690;9.130;2023-05-23T05:25:39;13.40;;;7.93;;
11907;SDS011;6014;47.690;9.130;2023-05-23T05:28:08;11.80;;;7.40;;
11907;SDS011;6014;47.690;9.130;2023-05-23T05:30:50;12.75;;;7.88;;
11907;SDS011;6014;47.690;9.130;2023-05-23T05:33:21;13.23;;;8.50;;
11907;SDS011;6014;47.690;9.130;2023-05-23T05:36:00;12.05;;;7.82;;
11907;SDS011;6014;47.690;9.130;2023-05-23T05:38:28;13.45;;;8.27;;
11907;SDS011;6014;47.690;9.130;2023-05-23T05:40:57;11.85;;;7.95;;
11907;SDS011;6014;47.690;9.130;2023-05-23T05:45:58;14.40;;;7.88;;
11907;SDS011;6014;47.690;9.130;2023-05-23T05:48:30;13.10;;;7.78;;
11907;SDS011;6014;47.690;9.130;2023-05-23T05:50:58;13.95;;;8.18;;
11907;SDS011;6014;47.690;9.130;2023-05-23T05:56:26;11.55;;;8.07;;
11907;SDS011;6014;47.690;9.130;2023-05-23T05:59:25;18.02;;;8.95;;
11907;SDS011;6014;47.690;9.130;2023-05-23T06:01:56;20.70;;;12.55;;
11907;SDS011;6014;47.690;9.130;2023-05-23T06:04:25;22.13;;;12.63;;
11907;SDS011;6014;47.690;9.130;2023-05-23T06:07:11;22.92;;;13.60;;
11907;SDS011;6014;47.690;9.130;2023-05-23T06:09:41;25.50;;;13.90;;
11907;SDS011;6014;47.690;9.130;2023-05-23T06:12:10;23.27;;;14.27;;
11907;SDS011;6014;47.690;9.130;2023-05-23T06:14:38;17.10;;;11.25;;
11907;SDS011;6014;47.690;9.130;2023-05-23T06:17:07;11.75;;;8.15;;
11907;SDS011;6014;47.690;9.130;2023-05-23T06:19:37;12.85;;;7.40;;
11907;SDS011;6014;47.690;9.130;2023-05-23T06:22:05;14.70;;;8.25;;
11907;SDS011;6014;47.690;9.130;2023-05-23T06:24:33;14.10;;;7.93;;
11907;SDS011;6014;47.690;9.130;2023-05-23T06:27:07;12.93;;;8.13;;
11907;SDS011;6014;47.690;9.130;2023-05-23T06:29:35;13.38;;;8.63;;
11907;SDS011;6014;47.690;9.130;2023-05-23T06:32:12;13.00;;;8.63;;
11907;SDS011;6014;47.690;9.130;2023-05-23T06:34:41;14.93;;;8.98;;
11907;SDS011;6014;47.690;9.130;2023-05-23T06:37:10;13.82;;;8.77;;
11907;SDS011;6014;47.690;9.130;2023-05-23T06:39:38;13.95;;;8.68;;
11907;SDS011;6014;47.690;9.130;2023-05-23T06:42:13;15.23;;;9.57;;
11907;SDS011;6014;47.690;9.130;2023-05-23T06:44:41;13.63;;;8.80;;
11907;SDS011;6014;47.690;9.130;2023-05-23T06:47:09;13.02;;;8.57;;
11907;SDS011;6014;47.690;9.130;2023-05-23T06:49:38;15.10;;;9.25;;
11907;SDS011;6014;47.690;9.130;2023-05-23T06:52:07;16.25;;;9.38;;
11907;SDS011;6014;47.690;9.130;2023-05-23T06:57:13;12.90;;;9.10;;
11907;SDS011;6014;47.690;9.130;2023-05-23T07:02:14;13.85;;;9.57;;
11907;SDS011;6014;47.690;9.130;2023-05-23T07:04:43;15.60;;;9.77;;
11907;SDS011;6014;47.690;9.130;2023-05-23T07:07:13;14.90;;;10.32;;
11907;SDS011;6014;47.690;9.130;2023-05-23T07:09:41;14.23;;;9.55;;
11907;SDS011;6014;47.690;9.130;2023-05-23T07:12:10;15.88;;;9.90;;
11907;SDS011;6014;47.690;9.130;2023-05-23T07:14:39;17.35;;;10.13;;
11907;SDS011;6014;47.690;9.130;2023-05-23T07:17:07;14.10;;;9.70;;
11907;SDS011;6014;47.690;9.130;2023-05-23T07:19:37;15.18;;;8.93;;
11907;SDS011;6014;47.690;9.130;2023-05-23T07:22:05;15.30;;;10.90;;
11907;SDS011;6014;47.690;9.130;2023-05-23T07:24:35;15.30;;;9.73;;
11907;SDS011;6014;47.690;9.130;2023-05-23T07:27:03;16.70;;;10.35;;
11907;SDS011;6014;47.690;9.130;2023-05-23T07:29:32;18.33;;;10.63;;
11907;SDS011;6014;47.690;9.130;2023-05-23T07:34:33;15.90;;;9.65;;
11907;SDS011;6014;47.690;9.130;2023-05-23T07:37:01;13.73;;;9.55;;
11907;SDS011;6014;47.690;9.130;2023-05-23T07:39:30;15.30;;;9.05;;
11907;SDS011;6014;47.690;9.130;2023-05-23T07:41:59;14.48;;;9.77;;
11907;SDS011;6014;47.690;9.130;2023-05-23T07:44:28;14.32;;;9.40;;
11907;SDS011;6014;47.690;9.130;2023-05-23T07:46:57;16.30;;;9.70;;
11907;SDS011;6014;47.690;9.130;2023-05-23T07:49:25;17.23;;;10.77;;
11907;SDS011;6014;47.690;9.130;2023-05-23T07:51:53;15.60;;;10.63;;
11907;SDS011;6014;47.690;9.130;2023-05-23T07:54:22;16.98;;;11.43;;
11907;SDS011;6014;47.690;9.130;2023-05-23T07:56:51;17.20;;;11.05;;
11907;SDS011;6014;47.690;9.130;2023-05-23T07:59:21;17.92;;;11.20;;
11907;SDS011;6014;47.690;9.130;2023-05-23T08:01:49;17.77;;;10.77;;
11907;SDS011;6014;47.690;9.130;2023-05-23T08:04:17;17.80;;;11.43;;
11907;SDS011;6014;47.690;9.130;2023-05-23T08:06:45;17.25;;;10.80;;
11907;SDS011;6014;47.690;9.130;2023-05-23T08:09:30;16.45;;;10.27;;
11907;SDS011;6014;47.690;9.130;2023-05-23T08:11:58;18.30;;;11.25;;
11907;SDS011;6014;47.690;9.130;2023-05-23T08:14:38;19.08;;;11.70;;
11907;SDS011;6014;47.690;9.130;2023-05-23T08:17:17;17.85;;;11.73;;
11907;SDS011;6014;47.690;9.130;2023-05-23T08:19:45;17.85;;;11.77;;
11907;SDS011;6014;47.690;9.130;2023-05-23T08:22:14;19.77;;;12.13;;
11907;SDS011;6014;47.690;9.130;2023-05-23T08:24:42;20.38;;;11.65;;
11907;SDS011;6014;47.690;9.130;2023-05-23T08:27:10;19.92;;;11.35;;
11907;SDS011;6014;47.690;9.130;2023-05-23T08:29:39;20.27;;;13.15;;
11907;SDS011;6014;47.690;9.130;2023-05-23T08:32:09;17.80;;;11.80;;
11907;SDS011;6014;47.690;9.130;2023-05-23T08:34:39;17.98;;;11.77;;
11907;SDS011;6014;47.690;9.130;2023-05-23T08:37:07;18.15;;;11.50;;
11907;SDS011;6014;47.690;9.130;2023-05-23T08:39:41;19.60;;;11.93;;
11907;SDS011;6014;47.690;9.130;2023-05-23T08:42:09;19.02;;;12.77;;
11907;SDS011;6014;47.690;9.130;2023-05-23T08:44:37;19.17;;;11.95;;
11907;SDS011;6014;47.690;9.130;2023-05-23T08:47:07;18.63;;;11.43;;
11907;SDS011;6014;47.690;9.130;2023-05-23T08:49:36;19.63;;;11.98;;
11907;SDS011;6014;47.690;9.130;2023-05-23T08:52:05;18.63;;;10.95;;
11907;SDS011;6014;47.690;9.130;2023-05-23T08:54:38;15.85;;;10.80;;
11907;SDS011;6014;47.690;9.130;2023-05-23T08:57:08;20.20;;;11.38;;
11907;SDS011;6014;47.690;9.130;2023-05-23T08:59:36;19.10;;;11.60;;
11907;SDS011;6014;47.690;9.130;2023-05-23T09:02:09;16.67;;;10.85;;
11907;SDS011;6014;47.690;9.130;2023-05-23T09:04:38;16.77;;;11.35;;
11907;SDS011;6014;47.690;9.130;2023-05-23T09:07:06;16.63;;;10.60;;
11907;SDS011;6014;47.690;9.130;2023-05-23T09:09:36;17.55;;;11.07;;
11907;SDS011;6014;47.690;9.130;2023-05-23T09:14:47;17.17;;;11.23;;
11907;SDS011;6014;47.690;9.130;2023-05-23T09:17:18;19.77;;;11.75;;
11907;SDS011;6014;47.690;9.130;2023-05-23T09:19:46;21.25;;;12.30;;
11907;SDS011;6014;47.690;9.130;2023-05-23T09:22:15;21.75;;;12.27;;
11907;SDS011;6014;47.690;9.130;2023-05-23T09:24:43;19.92;;;11.93;;
11907;SDS011;6014;47.690;9.130;2023-05-23T09:27:11;20.30;;;12.02;;
11907;SDS011;6014;47.690;9.130;2023-05-23T09:29:39;17.40;;;10.80;;
11907;SDS011;6014;47.690;9.130;2023-05-23T09:32:10;19.25;;;12.02;;
11907;SDS011;6014;47.690;9.130;2023-05-23T09:34:41;18.50;;;11.73;;
11907;SDS011;6014;47.690;9.130;2023-05-23T09:37:24;19.60;;;12.40;;
11907;SDS011;6014;47.690;9.130;2023-05-23T09:39:59;17.88;;;10.88;;
11907;SDS011;6014;47.690;9.130;2023-05-23T09:42:31;15.15;;;10.55;;
11907;SDS011;6014;47.690;9.130;2023-05-23T09:45:00;18.23;;;11.50;;
11907;SDS011;6014;47.690;9.130;2023-05-23T09:47:33;17.83;;;11.60;;
11907;SDS011;6014;47.690;9.130;2023-05-23T09:50:03;18.65;;;11.38;;
11907;SDS011;6014;47.690;9.130;2023-05-23T09:52:35;17.88;;;11.35;;
11907;SDS011;6014;47.690;9.130;2023-05-23T09:55:04;19.48;;;11.98;;
11907;SDS011;6014;47.690;9.130;2023-05-23T09:57:36;20.27;;;12.35;;
11907;SDS011;6014;47.690;9.130;2023-05-23T10:00:07;16.75;;;11.25;;
11907;SDS011;6014;47.690;9.130;2023-05-23T10:02:51;20.23;;;13.02;;
11907;SDS011;6014;47.690;9.130;2023-05-23T10:05:34;19.83;;;11.77;;
11907;SDS011;6014;47.690;9.130;2023-05-23T10:08:06;17.17;;;11.88;;
11907;SDS011;6014;47.690;9.130;2023-05-23T10:13:50;18.58;;;11.65;;
11907;SDS011;6014;47.690;9.130;2023-05-23T10:16:19;18.45;;;12.25;;
11907;SDS011;6014;47.690;9.130;2023-05-23T10:18:52;16.75;;;11.13;;
11907;SDS011;6014;47.690;9.130;2023-05-23T10:21:33;16.73;;;11.57;;
11907;SDS011;6014;47.690;9.130;2023-05-23T10:24:06;15.38;;;11.30;;
11907;SDS011;6014;47.690;9.130;2023-05-23T10:26:35;18.98;;;11.10;;
11907;SDS011;6014;47.690;9.130;2023-05-23T10:29:17;17.85;;;10.82;;
11907;SDS011;6014;47.690;9.130;2023-05-23T10:31:49;16.60;;;11.05;;
11907;SDS011;6014;47.690;9.130;2023-05-23T10:34:22;18.80;;;12.65;;
11907;SDS011;6014;47.690;9.130;2023-05-23T10:37:04;17.98;;;11.82;;
11907;SDS011;6014;47.690;9.130;2023-05-23T10:39:36;19.50;;;12.05;;
11907;SDS011;6014;47.690;9.130;2023-05-23T10:42:14;16.85;;;11.63;;
11907;SDS011;6014;47.690;9.130;2023-05-23T10:44:46;17.33;;;10.77;;
11907;SDS011;6014;47.690;9.130;2023-05-23T10:47:17;17.00;;;11.05;;
11907;SDS011;6014;47.690;9.130;2023-05-23T10:49:54;15.57;;;10.50;;
11907;SDS011;6014;47.690;9.130;2023-05-23T10:52:24;17.52;;;11.98;;
11907;SDS011;6014;47.690;9.130;2023-05-23T10:54:53;15.60;;;10.07;;
11907;SDS011;6014;47.690;9.130;2023-05-23T10:57:24;16.88;;;9.68;;
11907;SDS011;6014;47.690;9.130;2023-05-23T10:59:53;17.80;;;11.15;;
11907;SDS011;6014;47.690;9.130;2023-05-23T11:02:24;16.63;;;10.93;;
11907;SDS011;6014;47.690;9.130;2023-05-23T11:10:52;16.58;;;10.75;;
11907;SDS011;6014;47.690;9.130;2023-05-23T11:13:22;15.63;;;10.25;;
11907;SDS011;6014;47.690;9.130;2023-05-23T11:15:50;14.60;;;8.20;;
11907;SDS011;6014;47.690;9.130;2023-05-23T11:18:19;13.70;;;8.70;;
11907;SDS011;6014;47.690;9.130;2023-05-23T11:20:50;13.43;;;7.82;;
11907;SDS011;6014;47.690;9.130;2023-05-23T11:23:21;10.50;;;6.80;;
11907;SDS011;6014;47.690;9.130;2023-05-23T11:25:53;11.15;;;7.07;;
11907;SDS011;6014;47.690;9.130;2023-05-23T11:28:22;11.38;;;7.85;;
11907;SDS011;6014;47.690;9.130;2023-05-23T11:30:50;13.38;;;7.78;;
11907;SDS011;6014;47.690;9.130;2023-05-23T11:33:18;11.20;;;7.65;;
11907;SDS011;6014;47.690;9.130;2023-05-23T11:38:24;12.02;;;7.82;;
11907;SDS011;6014;47.690;9.130;2023-05-23T11:40:52;11.43;;;7.47;;
11907;SDS011;6014;47.690;9.130;2023-05-23T11:43:21;12.65;;;7.90;;
11907;SDS011;6014;47.690;9.130;2023-05-23T11:45:49;12.63;;;8.70;;
11907;SDS011;6014;47.690;9.130;2023-05-23T11:48:17;12.55;;;8.35;;
11907;SDS011;6014;47.690;9.130;2023-05-23T11:50:46;12.65;;;9.23;;
11907;SDS011;6014;47.690;9.130;2023-05-23T11:53:15;14.48;;;10.07;;
11907;SDS011;6014;47.690;9.130;2023-05-23T11:55:51;13.55;;;8.40;;
11907;SDS011;6014;47.690;9.130;2023-05-23T11:58:21;12.02;;;8.32;;
11907;SDS011;6014;47.690;9.130;2023-05-23T12:00:57;11.98;;;7.82;;
11907;SDS011;6014;47.690;9.130;2023-05-23T12:03:26;11.50;;;7.93;;
11907;SDS011;6014;47.690;9.130;2023-05-23T12:05:55;14.35;;;9.20;;
11907;SDS011;6014;47.690;9.130;2023-05-23T12:08:24;12.38;;;8.25;;
11907;SDS011;6014;47.690;9.130;2023-05-23T12:10:55;13.65;;;8.45;;
11907;SDS011;6014;47.690;9.130;2023-05-23T12:13:31;12.82;;;9.02;;
11907;SDS011;6014;47.690;9.130;2023-05-23T12:16:00;13.07;;;8.63;;
11907;SDS011;6014;47.690;9.130;2023-05-23T12:18:31;13.40;;;8.38;;
11907;SDS011;6014;47.690;9.130;2023-05-23T12:20:59;15.38;;;10.35;;
11907;SDS011;6014;47.690;9.130;2023-05-23T12:23:28;11.93;;;7.97;;
11907;SDS011;6014;47.690;9.130;2023-05-23T12:26:02;13.95;;;9.32;;
11907;SDS011;6014;47.690;9.130;2023-05-23T12:28:35;11.38;;;8.25;;
11907;SDS011;6014;47.690;9.130;2023-05-23T12:31:08;14.13;;;9.20;;
11907;SDS011;6014;47.690;9.130;2023-05-23T12:33:37;12.73;;;8.98;;
11907;SDS011;6014;47.690;9.130;2023-05-23T12:36:09;13.15;;;8.55;;
11907;SDS011;6014;47.690;9.130;2023-05-23T12:38:40;13.07;;;9.50;;
11907;SDS011;6014;47.690;9.130;2023-05-23T12:41:14;13.02;;;9.52;;
11907;SDS011;6014;47.690;9.130;2023-05-23T12:43:48;15.35;;;9.77;;
11907;SDS011;6014;47.690;9.130;2023-05-23T12:46:18;16.45;;;10.23;;
11907;SDS011;6014;47.690;9.130;2023-05-23T12:48:48;14.05;;;9.55;;
11907;SDS011;6014;47.690;9.130;2023-05-23T12:51:16;14.10;;;9.98;;
11907;SDS011;6014;47.690;9.130;2023-05-23T12:53:45;13.75;;;9.38;;
11907;SDS011;6014;47.690;9.130;2023-05-23T12:56:15;14.57;;;9.90;;
11907;SDS011;6014;47.690;9.130;2023-05-23T12:58:43;13.55;;;9.07;;
11907;SDS011;6014;47.690;9.130;2023-05-23T13:01:18;13.25;;;7.60;;
11907;SDS011;6014;47.690;9.130;2023-05-23T13:03:47;14.38;;;7.60;;
11907;SDS011;6014;47.690;9.130;2023-05-23T13:06:16;11.73;;;7.75;;
11907;SDS011;6014;47.690;9.130;2023-05-23T13:08:44;11.15;;;7.70;;
11907;SDS011;6014;47.690;9.130;2023-05-23T13:11:14;12.23;;;8.77;;
11907;SDS011;6014;47.690;9.130;2023-05-23T13:13:43;13.43;;;8.52;;
11907;SDS011;6014;47.690;9.130;2023-05-23T13:16:11;15.30;;;8.40;;
11907;SDS011;6014;47.690;9.130;2023-05-23T13:18:40;14.43;;;9.43;;
11907;SDS011;6014;47.690;9.130;2023-05-23T13:21:08;16.52;;;9.98;;
11907;SDS011;6014;47.690;9.130;2023-05-23T13:23:42;15.05;;;9.68;;
11907;SDS011;6014;47.690;9.130;2023-05-23T13:26:10;15.20;;;9.32;;
11907;SDS011;6014;47.690;9.130;2023-05-23T13:28:41;16.05;;;10.10;;
11907;SDS011;6014;47.690;9.130;2023-05-23T13:31:09;19.30;;;11.48;;
11907;SDS011;6014;47.690;9.130;2023-05-23T13:33:38;19.50;;;12.02;;
11907;SDS011;6014;47.690;9.130;2023-05-23T13:36:07;19.85;;;12.93;;
11907;SDS011;6014;47.690;9.130;2023-05-23T13:38:42;20.17;;;13.35;;
11907;SDS011;6014;47.690;9.130;2023-05-23T13:41:11;19.35;;;12.95;;
11907;SDS011;6014;47.690;9.130;2023-05-23T13:43:40;22.40;;;13.30;;
11907;SDS011;6014;47.690;9.130;2023-05-23T13:46:08;23.83;;;14.75;;
11907;SDS011;6014;47.690;9.130;2023-05-23T13:48:37;20.63;;;14.57;;
11907;SDS011;6014;47.690;9.130;2023-05-23T13:51:05;23.95;;;15.07;;
11907;SDS011;6014;47.690;9.130;2023-05-23T13:53:34;22.70;;;14.77;;
11907;SDS011;6014;47.690;9.130;2023-05-23T13:56:02;27.55;;;15.82;;
11907;SDS011;6014;47.690;9.130;2023-05-23T13:58:30;27.63;;;16.25;;
11907;SDS011;6014;47.690;9.130;2023-05-23T14:01:14;21.48;;;14.48;;
11907;SDS011;6014;47.690;9.130;2023-05-23T14:03:42;21.90;;;15.90;;
11907;SDS011;6014;47.690;9.130;2023-05-23T14:08:42;21.02;;;15.10;;
11907;SDS011;6014;47.690;9.130;2023-05-23T14:11:10;22.00;;;15.25;;
11907;SDS011;6014;47.690;9.130;2023-05-23T14:13:38;23.40;;;14.35;;
11907;SDS011;6014;47.690;9.130;2023-05-23T14:16:07;20.25;;;13.73;;
11907;SDS011;6014;47.690;9.130;2023-05-23T14:18:36;21.85;;;13.02;;
11907;SDS011;6014;47.690;9.130;2023-05-23T14:21:04;18.63;;;12.40;;
11907;SDS011;6014;47.690;9.130;2023-05-23T14:23:32;21.45;;;12.95;;
11907;SDS011;6014;47.690;9.130;2023-05-23T14:26:08;18.42;;;12.05;;
11907;SDS011;6014;47.690;9.130;2023-05-23T14:28:37;18.27;;;13.18;;
11907;SDS011;6014;47.690;9.130;2023-05-23T14:31:05;18.70;;;13.02;;
11907;SDS011;6014;47.690;9.130;2023-05-23T14:33:42;16.90;;;11.70;;
11907;SDS011;6014;47.690;9.130;2023-05-23T14:36:11;20.75;;;13.27;;
11907;SDS011;6014;47.690;9.130;2023-05-23T14:38:39;21.23;;;13.43;;
11907;SDS011;6014;47.690;9.130;2023-05-23T14:41:22;17.45;;;12.68;;
11907;SDS011;6014;47.690;9.130;2023-05-23T14:43:52;19.95;;;12.98;;
11907;SDS011;6014;47.690;9.130;2023-05-23T14:46:20;20.40;;;12.82;;
11907;SDS011;6014;47.690;9.130;2023-05-23T14:48:50;21.02;;;13.48;;
11907;SDS011;6014;47.690;9.130;2023-05-23T14:54:09;16.70;;;12.55;;
11907;SDS011;6014;47.690;9.130;2023-05-23T14:56:38;20.63;;;14.07;;
11907;SDS011;6014;47.690;9.130;2023-05-23T14:59:06;17.58;;;12.40;;
11907;SDS011;6014;47.690;9.130;2023-05-23T15:01:35;20.63;;;13.57;;
11907;SDS011;6014;47.690;9.130;2023-05-23T15:04:12;20.58;;;13.10;;
11907;SDS011;6014;47.690;9.130;2023-05-23T15:06:41;18.58;;;12.75;;
11907;SDS011;6014;47.690;9.130;2023-05-23T15:09:09;19.92;;;14.27;;
11907;SDS011;6014;47.690;9.130;2023-05-23T15:11:45;18.25;;;13.43;;
11907;SDS011;6014;47.690;9.130;2023-05-23T15:14:14;21.73;;;13.38;;
11907;SDS011;6014;47.690;9.130;2023-05-23T15:16:50;18.15;;;13.15;;
11907;SDS011;6014;47.690;9.130;2023-05-23T15:19:19;19.63;;;12.85;;
11907;SDS011;6014;47.690;9.130;2023-05-23T15:21:48;18.30;;;11.50;;
11907;SDS011;6014;47.690;9.130;2023-05-23T15:24:18;20.48;;;12.43;;
11907;SDS011;6014;47.690;9.130;2023-05-23T15:26:46;18.23;;;13.85;;
11907;SDS011;6014;47.690;9.130;2023-05-23T15:31:58;17.65;;;12.00;;
11907;SDS011;6014;47.690;9.130;2023-05-23T15:34:28;17.13;;;11.43;;
11907;SDS011;6014;47.690;9.130;2023-05-23T15:36:58;19.55;;;12.55;;
11907;SDS011;6014;47.690;9.130;2023-05-23T15:39:26;18.50;;;12.23;;
11907;SDS011;6014;47.690;9.130;2023-05-23T15:42:06;17.67;;;11.05;;
11907;SDS011;6014;47.690;9.130;2023-05-23T15:44:36;18.58;;;12.38;;
11907;SDS011;6014;47.690;9.130;2023-05-23T15:49:56;18.65;;;12.05;;
11907;SDS011;6014;47.690;9.130;2023-05-23T15:52:26;17.60;;;13.30;;
11907;SDS011;6014;47.690;9.130;2023-05-23T15:54:54;14.88;;;11.23;;
11907;SDS011;6014;47.690;9.130;2023-05-23T15:57:23;18.08;;;12.57;;
11907;SDS011;6014;47.690;9.130;2023-05-23T16:00:02;19.83;;;13.23;;
11907;SDS011;6014;47.690;9.130;2023-05-23T16:02:48;19.15;;;12.02;;
11907;SDS011;6014;47.690;9.130;2023-05-23T16:05:22;16.27;;;11.73;;
11907;SDS011;6014;47.690;9.130;2023-05-23T16:07:51;16.98;;;11.95;;
11907;SDS011;6014;47.690;9.130;2023-05-23T16:10:20;16.65;;;12.57;;
11907;SDS011;6014;47.690;9.130;2023-05-23T16:12:50;18.05;;;11.57;;
11907;SDS011;6014;47.690;9.130;2023-05-23T16:15:18;15.77;;;11.85;;
11907;SDS011;6014;47.690;9.130;2023-05-23T16:17:47;19.02;;;11.35;;
11907;SDS011;6014;47.690;9.130;2023-05-23T16:20:19;17.00;;;11.57;;
11907;SDS011;6014;47.690;9.130;2023-05-23T16:22:54;15.13;;;10.70;;
11907;SDS011;6014;47.690;9.130;2023-05-23T16:25:24;17.52;;;12.52;;